createdAt,value
2018-07-24T00:00:08.380Z,246.93
2018-07-24T00:02:39.778Z,239.12
2018-07-24T00:05:13.216Z,257.25
2018-07-24T00:07:46.248Z,252.28
2018-07-24T00:10:17.428Z,237.40
2018-07-24T00:12:50.360Z,246.55
2018-07-24T00:15:23.564Z,246.03
2018-07-24T00:17:55.677Z,247.60
2018-07-24T00:20:30.774Z,242.70
2018-07-24T00:23:02.539Z,248.75
2018-07-24T00:25:40.083Z,242.60
2018-07-24T00:28:12.521Z,233.10
2018-07-24T00:30:51.291Z,238.12
2018-07-24T00:33:22.742Z,238.18
2018-07-24T00:35:53.919Z,242.43
2018-07-24T00:38:25.251Z,237.82
2018-07-24T00:40:56.378Z,248.47
2018-07-24T00:43:27.310Z,248.68
2018-07-24T00:45:58.273Z,254.70
2018-07-24T00:48:30.131Z,250.07
2018-07-24T00:51:01.990Z,240.03
2018-07-24T00:53:33.541Z,236.90
2018-07-24T00:56:04.844Z,238.12
2018-07-24T00:58:36.701Z,251.22
2018-07-24T01:01:07.993Z,249.65
2018-07-24T01:03:39.036Z,253.12
2018-07-24T01:06:10.360Z,243.73
2018-07-24T01:08:41.679Z,252.43
2018-07-24T01:11:12.714Z,247.07
2018-07-24T01:13:44.003Z,252.30
2018-07-24T01:16:15.229Z,251.12
2018-07-24T01:18:46.477Z,243.20
2018-07-24T01:21:17.593Z,238.62
2018-07-24T01:23:49.271Z,240.22
2018-07-24T01:26:20.469Z,242.53
2018-07-24T01:28:52.312Z,240.95
2018-07-24T01:31:23.393Z,239.25
2018-07-24T01:33:54.446Z,238.92
2018-07-24T01:36:25.600Z,233.97
2018-07-24T01:38:56.805Z,260.48
2018-07-24T01:41:28.005Z,242.75
2018-07-24T01:43:59.328Z,240.12
2018-07-24T01:46:30.502Z,248.75
2018-07-24T01:49:01.838Z,235.48
2018-07-24T01:51:33.367Z,242.77
2018-07-24T01:54:04.902Z,233.50
2018-07-24T01:56:37.383Z,229.93
2018-07-24T01:59:08.826Z,233.40
2018-07-24T02:01:40.028Z,233.13
2018-07-24T02:04:11.605Z,239.72
2018-07-24T02:06:42.642Z,237.97
2018-07-24T02:09:13.943Z,235.95
2018-07-24T02:11:44.926Z,240.22
2018-07-24T02:14:16.468Z,238.10
2018-07-24T02:16:47.691Z,237.08
2018-07-24T02:19:19.198Z,234.03
2018-07-24T02:21:50.335Z,244.82
2018-07-24T02:24:21.855Z,249.70
2018-07-24T02:26:53.037Z,239.30
2018-07-24T02:29:24.520Z,229.82
2018-07-24T02:31:55.801Z,231.70
2018-07-24T02:34:27.720Z,234.10
2018-07-24T02:36:58.900Z,231.00
2018-07-24T02:39:30.362Z,231.30
2018-07-24T02:42:03.040Z,227.80
2018-07-24T02:44:34.581Z,228.15
2018-07-24T02:47:05.860Z,230.35
2018-07-24T02:49:37.149Z,238.52
2018-07-24T02:52:08.469Z,232.43
2018-07-24T02:54:39.714Z,230.77
2018-07-24T02:57:10.807Z,234.47
2018-07-24T02:59:41.931Z,235.60
2018-07-24T03:02:13.279Z,235.72
2018-07-24T03:04:44.704Z,228.15
2018-07-24T03:07:16.607Z,242.77
2018-07-24T03:09:47.961Z,249.40
2018-07-24T03:12:20.945Z,245.80
2018-07-24T03:14:52.168Z,238.57
2018-07-24T03:17:23.277Z,221.45
2018-07-24T03:19:54.527Z,233.97
2018-07-24T03:22:25.766Z,237.68
2018-07-24T03:24:57.419Z,239.10
2018-07-24T03:27:28.619Z,224.42
2018-07-24T03:30:05.178Z,235.43
2018-07-24T03:32:36.566Z,226.30
2018-07-24T03:35:07.667Z,231.90
2018-07-24T03:37:38.756Z,228.35
2018-07-24T03:40:09.872Z,235.45
2018-07-24T03:42:41.157Z,232.77
2018-07-24T03:45:12.417Z,232.40
2018-07-24T03:47:43.667Z,235.13
2018-07-24T03:50:14.836Z,232.60
2018-07-24T03:52:46.554Z,230.87
2018-07-24T03:55:17.978Z,240.70
2018-07-24T03:57:49.296Z,232.20
2018-07-24T04:00:20.638Z,232.15
2018-07-24T04:02:51.950Z,232.00
2018-07-24T04:05:23.090Z,232.40
2018-07-24T04:07:54.329Z,230.98
2018-07-24T04:10:26.915Z,233.78
2018-07-24T04:13:10.971Z,232.83
2018-07-24T04:15:42.003Z,227.90
2018-07-24T04:18:18.636Z,236.05
2018-07-24T04:20:49.634Z,226.58
2018-07-24T04:23:21.199Z,232.57
2018-07-24T04:25:52.510Z,236.12
2018-07-24T04:28:23.996Z,235.45
2018-07-24T04:30:55.179Z,227.10
2018-07-24T04:33:26.659Z,230.15
2018-07-24T04:35:57.812Z,229.90
2018-07-24T04:38:28.978Z,223.57
2018-07-24T04:41:00.282Z,226.07
2018-07-24T04:43:31.572Z,233.87
2018-07-24T04:46:02.705Z,232.05
2018-07-24T04:48:34.526Z,246.05
2018-07-24T04:51:05.731Z,233.55
2018-07-24T04:53:36.971Z,227.18
2018-07-24T04:56:08.176Z,236.57
2018-07-24T04:58:39.495Z,239.10
2018-07-24T05:01:12.196Z,240.30
2018-07-24T05:03:45.914Z,242.53
2018-07-24T05:06:17.091Z,245.80
2018-07-24T05:08:48.739Z,236.37
2018-07-24T05:11:19.724Z,238.07
2018-07-24T05:13:50.758Z,231.90
2018-07-24T05:16:21.954Z,247.00
2018-07-24T05:18:53.164Z,229.60
2018-07-24T05:21:24.111Z,234.98
2018-07-24T05:23:55.229Z,244.32
2018-07-24T05:26:26.496Z,233.68
2018-07-24T05:28:58.349Z,240.92
2018-07-24T05:31:29.483Z,241.38
2018-07-24T05:34:01.865Z,245.10
2018-07-24T05:36:41.252Z,256.77
2018-07-24T05:39:21.021Z,237.78
2018-07-24T05:42:00.248Z,250.45
2018-07-24T05:44:33.703Z,241.57
2018-07-24T05:47:05.995Z,253.77
2018-07-24T05:49:37.436Z,240.22
2018-07-24T05:52:08.511Z,243.20
2018-07-24T05:54:39.758Z,244.45
2018-07-24T05:57:10.918Z,253.55
2018-07-24T05:59:42.224Z,257.15
2018-07-24T06:02:14.581Z,249.95
2018-07-24T06:04:46.480Z,243.48
2018-07-24T06:07:22.543Z,253.15
2018-07-24T06:09:55.342Z,255.92
2018-07-24T06:12:27.980Z,251.18
2018-07-24T06:15:02.114Z,254.80
2018-07-24T06:17:35.013Z,259.07
2018-07-24T06:20:07.872Z,257.27
2018-07-24T06:22:42.154Z,255.60
2018-07-24T06:25:29.189Z,258.70
2018-07-24T06:28:04.931Z,277.27
2018-07-24T06:30:38.347Z,275.22
2018-07-24T06:33:10.879Z,261.10
2018-07-24T06:35:42.091Z,270.15
2018-07-24T06:38:13.397Z,279.40
2018-07-24T06:40:44.627Z,280.65
2018-07-24T06:43:15.599Z,269.25
2018-07-24T06:45:48.024Z,271.62
2018-07-24T06:48:19.004Z,281.35
2018-07-24T06:50:50.382Z,283.98
2018-07-24T06:53:23.645Z,289.55
2018-07-24T06:55:55.123Z,272.42
2018-07-24T06:58:35.763Z,272.75
2018-07-24T07:01:24.114Z,275.55
2018-07-24T07:03:57.123Z,276.40
2018-07-24T07:06:28.471Z,273.45
2018-07-24T07:09:06.659Z,275.00
2018-07-24T07:11:37.844Z,287.48
2018-07-24T07:14:09.032Z,292.98
2018-07-24T07:16:40.500Z,300.45
2018-07-24T07:19:11.857Z,284.25
2018-07-24T07:21:43.027Z,271.90
2018-07-24T07:24:14.095Z,273.20
2018-07-24T07:26:57.506Z,296.00
2018-07-24T07:29:30.295Z,280.85
2018-07-24T07:32:03.572Z,273.68
2018-07-24T07:34:35.018Z,282.02
2018-07-24T07:37:05.990Z,268.10
2018-07-24T07:39:37.059Z,282.95
2018-07-24T07:42:08.392Z,273.00
2018-07-24T07:44:39.816Z,270.85
2018-07-24T07:47:11.251Z,268.07
2018-07-24T07:49:57.793Z,281.15
2018-07-24T07:52:40.937Z,285.75
2018-07-24T07:55:21.868Z,274.40
2018-07-24T07:57:53.579Z,275.70
2018-07-24T08:00:37.227Z,274.00
2018-07-24T08:03:30.845Z,293.10
2018-07-24T08:06:11.051Z,292.73
2018-07-24T08:08:42.175Z,296.30
2018-07-24T08:11:14.969Z,269.68
2018-07-24T08:13:46.562Z,289.80
2018-07-24T08:16:18.675Z,296.37
2018-07-24T08:18:52.374Z,283.65
2018-07-24T08:21:25.700Z,296.52
2018-07-24T08:23:57.076Z,284.48
2018-07-24T08:26:28.913Z,292.65
2018-07-24T08:29:00.186Z,285.60
2018-07-24T08:31:31.244Z,290.70
2018-07-24T08:34:02.267Z,277.90
2018-07-24T08:36:33.460Z,302.65
2018-07-24T08:39:05.366Z,298.57
2018-07-24T08:41:36.808Z,298.82
2018-07-24T08:44:07.922Z,298.05
2018-07-24T08:46:39.066Z,329.40
2018-07-24T08:49:10.134Z,308.15
2018-07-24T08:51:41.217Z,311.77
2018-07-24T08:54:12.544Z,298.40
2018-07-24T08:56:43.759Z,305.80
2018-07-24T08:59:14.820Z,281.25
2018-07-24T09:01:45.891Z,304.77
2018-07-24T09:04:17.398Z,308.38
2018-07-24T09:06:48.570Z,318.93
2018-07-24T09:09:21.344Z,304.85
2018-07-24T09:11:52.743Z,301.55
2018-07-24T09:14:23.760Z,318.77
2018-07-24T09:16:54.826Z,303.80
2018-07-24T09:19:26.644Z,326.65
2018-07-24T09:21:57.815Z,332.30
2018-07-24T09:24:29.085Z,307.45
2018-07-24T09:27:00.768Z,311.52
2018-07-24T09:29:32.027Z,300.05
2018-07-24T09:32:04.448Z,316.33
2018-07-24T09:34:35.729Z,307.73
2018-07-24T09:37:18.227Z,315.37
2018-07-24T09:39:55.173Z,311.87
2018-07-24T09:42:26.586Z,311.30
2018-07-24T09:44:57.727Z,355.83
2018-07-24T09:47:32.061Z,336.52
2018-07-24T09:50:15.123Z,348.70
2018-07-24T09:55:36.800Z,316.90
2018-07-24T09:58:09.757Z,339.52
2018-07-24T10:01:44.523Z,364.02
2018-07-24T10:04:15.787Z,319.13
2018-07-24T10:06:48.838Z,341.20
2018-07-24T10:09:22.080Z,332.70
2018-07-24T10:11:53.303Z,347.50
2018-07-24T16:39:14.075Z,370.55
2018-07-24T16:41:45.119Z,368.48
2018-07-24T16:44:16.299Z,404.02
2018-07-24T16:46:48.567Z,369.37
2018-07-24T16:49:20.797Z,375.82
2018-07-24T16:51:53.376Z,390.77
2018-07-24T16:54:25.196Z,388.05
2018-07-24T16:56:56.442Z,368.27
2018-07-24T16:59:28.116Z,390.82
2018-07-24T17:01:59.715Z,374.88
2018-07-24T17:04:32.977Z,380.92
2018-07-24T17:07:04.567Z,376.35
2018-07-24T17:09:35.916Z,391.02
2018-07-24T17:12:08.584Z,368.02
2018-07-24T17:14:40.905Z,380.57
2018-07-24T17:17:14.065Z,363.80
2018-07-24T17:19:46.229Z,342.55
2018-07-24T17:22:18.562Z,354.07
2018-07-24T17:24:49.740Z,337.02
2018-07-24T17:27:20.929Z,343.70
2018-07-24T17:29:51.994Z,381.47
2018-07-24T17:32:23.999Z,345.00
2018-07-24T17:34:55.055Z,383.75
2018-07-24T17:37:34.882Z,362.88
2018-07-24T17:40:14.103Z,372.20
2018-07-24T17:42:52.450Z,352.70
2018-07-24T17:45:31.015Z,350.75
2018-07-24T17:48:06.180Z,339.08
2018-07-24T17:50:40.872Z,374.55
2018-07-24T17:53:13.330Z,396.43
2018-07-24T17:55:45.040Z,346.13
2018-07-24T17:58:17.033Z,381.85
2018-07-24T18:00:51.549Z,350.90
2018-07-24T18:03:22.756Z,360.00
2018-07-24T18:05:53.794Z,354.32
2018-07-24T18:08:24.839Z,382.00
2018-07-24T18:10:56.413Z,347.45
2018-07-24T18:13:27.663Z,368.37
2018-07-24T18:15:59.227Z,368.42
2018-07-24T18:18:30.489Z,375.00
2018-07-24T18:21:01.596Z,370.17
2018-07-24T18:23:32.979Z,361.87
2018-07-24T18:26:05.093Z,343.00
2018-07-24T18:28:36.747Z,422.30
2018-07-24T18:31:07.944Z,415.10
2018-07-24T18:33:39.118Z,387.30
2018-07-24T18:36:12.037Z,389.95
2018-07-24T18:38:43.010Z,421.75
2018-07-24T18:41:14.986Z,379.57
2018-07-24T18:43:48.392Z,377.52
2018-07-24T18:46:21.572Z,370.07
2018-07-24T18:48:52.841Z,398.62
2018-07-24T18:51:24.013Z,395.82
2018-07-24T18:53:55.545Z,358.00
2018-07-24T18:56:27.665Z,386.77
2018-07-24T18:58:59.072Z,393.75
2018-07-24T19:01:30.575Z,387.63
2018-07-24T19:04:01.995Z,362.88
2018-07-24T19:06:33.585Z,367.45
2018-07-24T19:09:06.759Z,369.37
2018-07-24T19:11:38.217Z,352.75
2018-07-24T19:14:09.504Z,361.32
2018-07-24T19:16:40.539Z,373.65
2018-07-24T19:19:11.683Z,359.40
2018-07-24T19:21:43.821Z,355.90
2018-07-24T19:24:16.616Z,337.05
2018-07-24T19:26:47.930Z,357.60
2018-07-24T19:29:19.963Z,378.75
2018-07-24T19:31:51.377Z,389.90
2018-07-24T19:34:23.012Z,349.30
2018-07-24T19:36:54.178Z,353.18
2018-07-24T19:39:25.845Z,353.48
2018-07-24T19:41:57.723Z,331.05
2018-07-24T19:44:34.726Z,371.82
2018-07-24T19:47:08.080Z,365.90
2018-07-24T19:49:39.642Z,362.25
2018-07-24T19:52:10.999Z,328.67
2018-07-24T19:54:43.017Z,341.73
2018-07-24T19:57:15.148Z,330.73
2018-07-24T19:59:46.784Z,328.10
2018-07-24T20:02:18.390Z,329.48
2018-07-24T20:04:49.390Z,329.85
2018-07-24T20:07:20.397Z,297.17
2018-07-24T20:09:52.411Z,315.65
2018-07-24T20:12:23.500Z,279.00
2018-07-24T20:14:54.539Z,303.80
2018-07-24T20:17:25.867Z,306.45
2018-07-24T20:20:02.603Z,304.25
2018-07-24T20:22:34.925Z,322.17
2018-07-24T20:25:09.071Z,323.55
2018-07-24T20:27:40.217Z,327.10
2018-07-24T20:30:12.228Z,302.87
2018-07-24T20:32:43.651Z,291.73
2018-07-24T20:35:14.922Z,284.95
2018-07-24T20:37:48.141Z,288.05
2018-07-24T20:40:20.232Z,294.05
2018-07-24T20:42:53.627Z,288.20
2018-07-24T20:45:26.710Z,289.48
2018-07-24T20:47:59.234Z,303.67
2018-07-24T20:50:31.323Z,274.05
2018-07-24T20:53:03.744Z,282.50
2018-07-24T20:55:36.212Z,273.73
2018-07-24T20:58:10.907Z,280.55
2018-07-24T21:00:49.113Z,291.00
2018-07-24T21:03:20.673Z,263.52
2018-07-24T21:05:52.143Z,276.50
2018-07-24T21:08:23.395Z,290.57
2018-07-24T21:10:55.533Z,266.95
2018-07-24T21:13:27.776Z,275.10
2018-07-24T21:15:59.176Z,289.25
2018-07-24T21:18:30.913Z,296.45
2018-07-24T21:21:02.628Z,279.87
2018-07-24T21:23:34.493Z,293.45
2018-07-24T21:26:15.597Z,268.50
2018-07-24T21:28:58.887Z,264.08
2018-07-24T21:31:37.029Z,274.10
2018-07-24T21:34:08.494Z,258.77
2018-07-24T21:36:41.087Z,266.40
2018-07-24T21:39:13.536Z,273.73
2018-07-24T21:41:44.991Z,269.68
2018-07-24T21:44:17.785Z,270.93
2018-07-24T21:46:49.125Z,256.90
2018-07-24T21:49:20.944Z,263.80
2018-07-24T21:51:57.231Z,260.60
2018-07-24T21:54:28.887Z,258.20
2018-07-24T21:57:00.303Z,251.07
2018-07-24T21:59:31.986Z,260.50
2018-07-24T22:02:04.055Z,260.17
2018-07-24T22:04:36.117Z,266.25
2018-07-24T22:07:07.364Z,266.50
2018-07-24T22:09:39.778Z,258.47
2018-07-24T22:12:12.547Z,259.25
2018-07-24T22:14:44.288Z,269.30
2018-07-24T22:17:15.728Z,265.60
2018-07-24T22:19:47.962Z,256.35
2018-07-24T22:22:19.401Z,262.60
2018-07-24T22:24:50.613Z,255.70
2018-07-24T22:27:22.223Z,254.95
2018-07-24T22:29:53.333Z,266.30
2018-07-24T22:32:24.593Z,278.50
2018-07-24T22:34:55.784Z,269.70
2018-07-24T22:37:28.063Z,254.82
2018-07-24T22:39:59.115Z,256.63
2018-07-24T22:42:30.310Z,251.18
2018-07-24T22:45:01.812Z,249.15
2018-07-24T22:47:33.167Z,263.00
2018-07-24T22:50:04.684Z,270.23
2018-07-24T22:52:36.272Z,267.27
2018-07-24T22:55:08.143Z,264.65
2018-07-24T22:57:40.545Z,265.37
2018-07-24T23:00:12.338Z,262.25
2018-07-24T23:02:43.505Z,258.25
2018-07-24T23:05:14.859Z,266.68
2018-07-24T23:07:46.448Z,246.43
2018-07-24T23:10:17.612Z,256.65
2018-07-24T23:12:48.927Z,261.60
2018-07-24T23:15:20.233Z,257.15
2018-07-24T23:17:51.696Z,254.07
2018-07-24T23:20:25.965Z,271.20
2018-07-24T23:22:57.411Z,268.02
2018-07-24T23:25:28.724Z,263.77
2018-07-24T23:28:00.143Z,271.57
2018-07-24T23:30:32.994Z,272.80
2018-07-24T23:33:05.724Z,252.87
2018-07-24T23:35:37.737Z,236.75
2018-07-24T23:38:10.030Z,257.98
2018-07-24T23:40:41.457Z,247.10
2018-07-24T23:43:13.165Z,256.87
2018-07-24T23:45:44.737Z,252.13
2018-07-24T23:48:16.068Z,247.93
2018-07-24T23:50:47.675Z,236.22
2018-07-24T23:53:19.129Z,243.42
2018-07-24T23:55:51.426Z,243.02
2018-07-24T23:58:23.189Z,266.23
